createdAt,value
2022-08-03T00:01:42.865Z,1.83
2022-08-03T00:04:11.563Z,1.80
2022-08-03T00:06:38.740Z,2.20
2022-08-03T00:09:06.310Z,2.40
2022-08-03T00:11:33.486Z,2.20
2022-08-03T00:14:01.089Z,2.15
2022-08-03T00:16:27.909Z,1.60
2022-08-03T00:18:54.742Z,1.90
2022-08-03T00:21:22.536Z,1.40
2022-08-03T00:23:52.200Z,1.77
2022-08-03T00:26:20.943Z,1.95
2022-08-03T00:28:48.414Z,2.40
2022-08-03T00:31:15.352Z,2.63
2022-08-03T00:33:59.101Z,1.75
2022-08-03T00:36:29.293Z,2.45
2022-08-03T00:38:56.676Z,2.15
2022-08-03T00:41:23.853Z,2.22
2022-08-03T00:43:51.167Z,2.28
2022-08-03T00:46:21.793Z,2.50
2022-08-03T00:48:52.404Z,2.22
2022-08-03T00:51:20.832Z,1.73
2022-08-03T00:53:48.074Z,1.90
2022-08-03T00:56:16.298Z,1.98
2022-08-03T00:58:46.288Z,2.05
2022-08-03T01:01:15.337Z,2.35
2022-08-03T01:03:42.538Z,2.15
2022-08-03T01:06:36.600Z,1.80
2022-08-03T01:09:20.919Z,3.22
2022-08-03T01:12:04.601Z,1.83
2022-08-03T01:14:39.274Z,2.53
2022-08-03T01:17:57.937Z,2.20
2022-08-03T01:20:28.161Z,2.67
2022-08-03T01:23:21.725Z,2.05
2022-08-03T01:26:06.436Z,2.30
2022-08-03T01:29:05.436Z,2.15
2022-08-03T01:32:58.464Z,2.45
2022-08-03T01:34:36.532Z,1.85
2022-08-03T01:39:33.566Z,2.22
2022-08-03T01:42:06.326Z,1.65
2022-08-03T01:44:38.710Z,2.10
2022-08-03T01:47:07.046Z,1.77
2022-08-03T01:49:40.169Z,1.95
2022-08-03T01:52:07.913Z,1.70
2022-08-03T01:54:40.838Z,1.90
2022-08-03T01:57:08.959Z,2.08
2022-08-03T01:59:37.062Z,1.90
2022-08-03T02:02:29.773Z,2.03
2022-08-03T02:04:56.969Z,2.35
2022-08-03T02:07:26.169Z,2.22
2022-08-03T02:09:56.012Z,1.88
2022-08-03T02:12:27.089Z,2.10
2022-08-03T02:14:56.619Z,2.25
2022-08-03T02:17:39.632Z,2.10
2022-08-03T02:20:09.418Z,2.15
2022-08-03T02:22:40.181Z,2.83
2022-08-03T02:25:10.017Z,1.85
2022-08-03T02:28:02.127Z,2.65
2022-08-03T02:30:38.821Z,2.58
2022-08-03T02:33:11.717Z,2.85
2022-08-03T02:35:40.785Z,2.85
2022-08-03T02:38:10.536Z,2.10
2022-08-03T02:40:40.886Z,1.95
2022-08-03T02:43:11.901Z,1.90
2022-08-03T02:45:46.060Z,2.40
2022-08-03T02:48:17.698Z,1.85
2022-08-03T02:50:45.537Z,2.13
2022-08-03T02:53:14.234Z,2.20
2022-08-03T02:55:43.281Z,2.13
2022-08-03T02:58:14.138Z,2.50
2022-08-03T03:00:44.616Z,1.95
2022-08-03T03:03:11.741Z,2.97
2022-08-03T03:05:56.041Z,1.77
2022-08-03T03:08:28.386Z,2.20
2022-08-03T03:11:01.068Z,2.22
2022-08-03T03:13:30.527Z,2.30
2022-08-03T03:16:01.745Z,1.85
2022-08-03T03:18:29.703Z,2.47
2022-08-03T03:20:57.953Z,2.40
2022-08-03T03:23:25.807Z,2.38
2022-08-03T03:25:53.441Z,2.38
2022-08-03T03:28:20.925Z,2.33
2022-08-03T03:30:52.815Z,2.40
2022-08-03T03:33:20.508Z,2.63
2022-08-03T03:35:47.628Z,2.17
2022-08-03T03:38:14.660Z,2.33
2022-08-03T03:40:41.877Z,2.45
2022-08-03T03:43:11.144Z,2.80
2022-08-03T03:45:41.141Z,3.65
2022-08-03T03:48:08.000Z,3.15
2022-08-03T03:50:37.363Z,3.00
2022-08-03T03:53:04.899Z,3.33
2022-08-03T03:55:31.757Z,2.92
2022-08-03T03:57:58.750Z,2.85
2022-08-03T04:00:25.633Z,2.45
2022-08-03T04:02:52.481Z,2.00
2022-08-03T04:05:37.677Z,3.03
2022-08-03T04:08:32.645Z,2.20
2022-08-03T04:11:29.304Z,2.33
2022-08-03T04:14:09.661Z,2.28
2022-08-03T04:16:43.784Z,2.05
2022-08-03T04:19:22.614Z,2.47
2022-08-03T04:21:53.505Z,2.47
2022-08-03T04:24:27.934Z,2.45
2022-08-03T04:26:57.672Z,2.35
2022-08-03T04:29:27.003Z,2.45
2022-08-03T04:31:55.568Z,2.33
2022-08-03T04:34:22.582Z,2.97
2022-08-03T04:36:54.975Z,2.60
2022-08-03T04:39:27.658Z,2.83
2022-08-03T04:42:07.613Z,2.70
2022-08-03T04:44:42.306Z,2.45
2022-08-03T04:47:09.259Z,2.53
2022-08-03T04:49:39.293Z,2.67
2022-08-03T04:52:10.117Z,2.60
2022-08-03T04:54:45.902Z,3.13
2022-08-03T04:57:22.182Z,3.10
2022-08-03T05:00:01.354Z,3.10
2022-08-03T05:02:30.634Z,3.22
2022-08-03T05:04:58.362Z,2.17
2022-08-03T05:07:25.499Z,2.78
2022-08-03T05:09:57.713Z,2.88
2022-08-03T05:12:32.707Z,3.03
2022-08-03T05:15:00.996Z,3.05
2022-08-03T05:17:28.806Z,3.40
2022-08-03T05:19:56.585Z,3.17
2022-08-03T05:22:23.961Z,3.17
2022-08-03T05:24:50.814Z,3.75
2022-08-03T05:27:19.609Z,2.92
2022-08-03T05:29:48.239Z,2.30
2022-08-03T05:32:16.749Z,2.58
2022-08-03T05:34:44.374Z,2.67
2022-08-03T05:37:11.512Z,2.20
2022-08-03T05:39:38.420Z,2.53
2022-08-03T05:42:05.242Z,2.85
2022-08-03T05:44:32.290Z,2.28
2022-08-03T05:46:59.518Z,2.67
2022-08-03T05:49:26.442Z,2.83
2022-08-03T05:52:00.027Z,3.30
2022-08-03T05:54:57.393Z,2.85
2022-08-03T05:57:25.933Z,2.67
2022-08-03T05:59:57.401Z,3.10
2022-08-03T06:02:28.461Z,2.65
2022-08-03T06:04:55.245Z,2.08
2022-08-03T06:07:22.383Z,2.20
2022-08-03T06:10:33.733Z,3.05
2022-08-03T06:12:36.238Z,2.63
2022-08-03T06:15:04.946Z,2.20
2022-08-03T06:17:37.672Z,2.47
2022-08-03T06:20:06.296Z,2.75
2022-08-03T06:22:33.118Z,2.45
2022-08-03T06:25:04.067Z,2.00
2022-08-03T06:27:36.432Z,2.25
2022-08-03T06:30:05.505Z,2.35
2022-08-03T06:32:32.456Z,1.98
2022-08-03T06:35:00.149Z,2.03
2022-08-03T06:37:27.346Z,1.88
2022-08-03T06:39:54.350Z,2.33
2022-08-03T06:42:21.494Z,2.03
2022-08-03T06:44:49.909Z,1.80
2022-08-03T06:47:16.789Z,2.00
2022-08-03T06:49:43.681Z,1.63
2022-08-03T06:52:37.879Z,1.77
2022-08-03T06:55:06.533Z,2.20
2022-08-03T06:57:33.375Z,2.20
2022-08-03T07:00:07.694Z,2.33
2022-08-03T07:02:39.850Z,2.17
2022-08-03T07:05:08.052Z,2.15
2022-08-03T07:07:34.899Z,2.30
2022-08-03T07:10:02.383Z,1.85
2022-08-03T07:12:30.842Z,2.42
2022-08-03T07:15:01.625Z,1.73
2022-08-03T07:17:35.541Z,1.67
2022-08-03T07:22:31.705Z,2.00
2022-08-03T07:24:58.908Z,2.17
2022-08-03T07:27:30.469Z,1.60
2022-08-03T07:29:58.892Z,1.50
2022-08-03T07:32:26.314Z,1.60
2022-08-03T07:34:57.082Z,1.73
2022-08-03T07:37:27.229Z,1.58
2022-08-03T07:39:54.009Z,1.60
2022-08-03T07:42:20.845Z,1.33
2022-08-03T07:44:47.595Z,1.90
2022-08-03T07:47:24.016Z,1.67
2022-08-03T07:49:51.025Z,1.77
2022-08-03T07:52:37.128Z,1.38
2022-08-03T07:55:08.301Z,1.40
2022-08-03T07:57:35.802Z,1.80
2022-08-03T08:00:06.118Z,1.50
2022-08-03T08:02:32.900Z,0.90
2022-08-03T08:05:05.002Z,0.88
2022-08-03T08:07:32.498Z,1.05
2022-08-03T08:09:59.265Z,0.75
2022-08-03T08:12:26.063Z,0.95
2022-08-03T08:14:52.915Z,0.88
2022-08-03T08:17:20.125Z,0.68
2022-08-03T08:19:49.018Z,0.70
2022-08-03T08:22:19.746Z,0.70
2022-08-03T08:24:57.118Z,1.02
2022-08-03T08:27:23.891Z,0.70
2022-08-03T08:29:55.125Z,0.57
2022-08-03T08:32:24.479Z,0.50
2022-08-03T08:34:51.225Z,0.35
2022-08-03T08:37:18.151Z,0.40
2022-08-03T08:39:44.886Z,0.40
2022-08-03T08:42:11.833Z,0.60
2022-08-03T08:44:38.666Z,0.80
2022-08-03T08:47:06.023Z,0.50
2022-08-03T08:49:36.175Z,0.70
2022-08-03T08:52:05.145Z,0.75
2022-08-03T08:55:00.193Z,0.50
2022-08-03T08:57:51.197Z,0.70
2022-08-03T09:00:18.840Z,0.45
2022-08-03T09:02:46.751Z,0.70
2022-08-03T09:05:19.198Z,0.80
2022-08-03T09:07:47.737Z,0.38
2022-08-03T09:10:22.064Z,0.55
2022-08-03T09:12:52.226Z,0.80
2022-08-03T09:15:22.134Z,1.17
2022-08-03T09:17:51.419Z,0.90
2022-08-03T09:20:20.164Z,0.80
2022-08-03T09:23:51.592Z,0.88
2022-08-03T09:26:00.119Z,0.90
2022-08-03T09:29:01.287Z,0.50
2022-08-03T09:31:36.110Z,0.60
2022-08-03T09:34:09.184Z,0.82
2022-08-03T09:36:47.012Z,0.75
2022-08-03T09:39:40.398Z,1.23
2022-08-03T09:44:50.869Z,0.80
2022-08-03T09:47:44.712Z,0.88
2022-08-03T09:50:13.064Z,1.02
2022-08-03T09:52:50.127Z,0.90
2022-08-03T09:56:34.645Z,0.88
2022-08-03T09:58:10.791Z,0.90
2022-08-03T10:00:57.723Z,0.50
2022-08-03T10:03:27.945Z,0.70
2022-08-03T10:05:59.577Z,0.63
2022-08-03T10:08:26.983Z,0.82
2022-08-03T10:10:54.792Z,0.90
2022-08-03T10:13:23.474Z,0.68
2022-08-03T10:16:22.769Z,1.00
2022-08-03T10:18:38.118Z,1.05
2022-08-03T10:21:08.777Z,1.00
2022-08-03T10:23:38.529Z,0.82
2022-08-03T10:26:08.299Z,1.05
2022-08-03T10:28:41.565Z,1.17
2022-08-03T10:31:14.039Z,0.70
2022-08-03T10:33:51.126Z,1.40
2022-08-03T10:36:24.998Z,1.27
2022-08-03T10:38:53.808Z,0.80
2022-08-03T10:41:22.697Z,0.90
2022-08-03T10:44:20.080Z,0.90
2022-08-03T10:46:50.458Z,0.70
2022-08-03T10:49:33.537Z,0.80
2022-08-03T10:52:01.305Z,0.75
2022-08-03T10:55:03.582Z,0.85
2022-08-03T10:58:01.006Z,1.00
2022-08-03T11:00:30.532Z,1.27
2022-08-03T11:03:10.263Z,1.35
2022-08-03T11:05:49.503Z,0.95
2022-08-03T11:08:26.358Z,1.40
2022-08-03T11:11:01.692Z,0.93
2022-08-03T11:13:32.044Z,1.05
2022-08-03T11:16:06.019Z,1.48
2022-08-03T11:18:33.537Z,0.90
2022-08-03T11:21:00.865Z,1.25
2022-08-03T11:24:03.994Z,0.82
2022-08-03T11:26:33.016Z,1.00
2022-08-03T11:29:29.587Z,0.82
2022-08-03T11:31:56.932Z,1.40
2022-08-03T11:34:24.764Z,1.10
2022-08-03T11:37:28.522Z,1.20
2022-08-03T11:39:57.356Z,1.15
2022-08-03T11:42:24.104Z,0.98
2022-08-03T11:44:52.273Z,0.93
2022-08-03T11:47:21.516Z,0.90
2022-08-03T11:49:51.198Z,1.10
2022-08-03T11:52:19.575Z,1.40
2022-08-03T11:54:57.197Z,1.10
2022-08-03T11:59:01.553Z,1.30
2022-08-03T12:00:29.611Z,1.00
2022-08-03T12:03:04.742Z,0.77
2022-08-03T12:05:52.329Z,1.00
2022-08-03T12:08:31.093Z,0.93
2022-08-03T12:11:01.438Z,1.30
2022-08-03T12:14:44.261Z,1.45
2022-08-03T12:16:25.930Z,1.00
2022-08-03T12:19:06.665Z,0.82
2022-08-03T12:21:34.638Z,0.82
2022-08-03T12:24:04.344Z,0.70
2022-08-03T12:26:58.556Z,0.85
2022-08-03T12:29:26.437Z,0.85
2022-08-03T12:31:53.420Z,0.77
2022-08-03T12:34:20.210Z,0.90
2022-08-03T12:36:59.190Z,1.42
2022-08-03T12:39:30.795Z,0.80
2022-08-03T12:41:58.053Z,0.70
2022-08-03T12:44:43.190Z,1.13
2022-08-03T12:47:11.926Z,0.70
2022-08-03T12:49:54.346Z,0.80
2022-08-03T12:52:23.627Z,0.70
2022-08-03T12:54:58.676Z,0.90
2022-08-03T12:57:25.646Z,0.82
2022-08-03T12:59:56.024Z,0.75
2022-08-03T13:02:26.287Z,0.85
2022-08-03T13:04:55.255Z,0.95
2022-08-03T13:07:23.254Z,0.90
2022-08-03T13:09:56.799Z,1.02
2022-08-03T13:12:30.051Z,0.95
2022-08-03T13:14:59.991Z,1.10
2022-08-03T13:17:28.053Z,1.02
2022-08-03T13:19:55.002Z,0.90
2022-08-03T13:22:26.242Z,0.80
2022-08-03T13:24:58.489Z,1.15
2022-08-03T13:28:04.013Z,1.58
2022-08-03T13:30:14.533Z,0.55
2022-08-03T13:32:51.779Z,0.63
2022-08-03T13:35:18.647Z,0.63
2022-08-03T13:37:47.395Z,0.70
2022-08-03T13:40:15.949Z,0.77
2022-08-03T13:42:42.813Z,0.90
2022-08-03T13:45:11.395Z,1.00
2022-08-03T13:47:38.269Z,0.80
2022-08-03T13:50:05.592Z,0.80
2022-08-03T13:52:36.866Z,1.08
2022-08-03T13:55:06.638Z,1.02
2022-08-03T13:58:02.820Z,0.60
2022-08-03T14:00:28.052Z,0.73
2022-08-03T14:03:03.833Z,0.80
2022-08-03T14:05:34.261Z,0.95
2022-08-03T14:08:04.011Z,0.70
2022-08-03T14:10:31.309Z,1.20
2022-08-03T14:13:00.492Z,0.90
2022-08-03T14:15:28.693Z,0.77
2022-08-03T14:17:58.603Z,0.52
2022-08-03T14:20:38.809Z,0.60
2022-08-03T14:23:14.960Z,0.68
2022-08-03T14:25:44.541Z,0.70
2022-08-03T14:28:19.602Z,0.82
2022-08-03T14:30:46.731Z,0.90
2022-08-03T14:33:13.485Z,0.73
2022-08-03T14:35:40.699Z,1.00
2022-08-03T14:38:07.650Z,1.17
2022-08-03T14:40:34.539Z,0.90
2022-08-03T14:43:02.523Z,0.93
2022-08-03T14:45:29.433Z,0.93
2022-08-03T14:50:30.492Z,1.00
2022-08-03T14:50:48.307Z,1.30
2022-08-03T14:53:15.722Z,0.70
2022-08-03T14:55:50.511Z,0.82
2022-08-03T14:58:23.053Z,0.88
2022-08-03T15:00:51.585Z,1.03
2022-08-03T15:03:25.811Z,0.80
2022-08-03T15:05:54.355Z,0.70
2022-08-03T15:08:22.339Z,0.82
2022-08-03T15:10:50.646Z,1.05
2022-08-03T15:13:18.006Z,0.65
2022-08-03T15:15:45.096Z,0.52
2022-08-03T15:18:12.105Z,0.90
2022-08-03T15:20:44.949Z,0.77
2022-08-03T15:23:14.558Z,0.95
2022-08-03T15:26:28.903Z,0.73
2022-08-03T15:28:29.712Z,0.47
2022-08-03T15:30:56.935Z,0.57
2022-08-03T15:33:23.845Z,1.02
2022-08-03T15:35:50.673Z,0.80
2022-08-03T15:38:17.959Z,0.90
2022-08-03T15:40:45.476Z,0.80
2022-08-03T15:43:12.518Z,0.70
2022-08-03T15:45:41.185Z,0.77
2022-08-03T15:48:09.114Z,0.60
2022-08-03T15:50:36.219Z,0.88
2022-08-03T15:53:03.590Z,1.33
2022-08-03T15:55:31.317Z,1.08
2022-08-03T15:59:10.143Z,0.80
2022-08-03T16:00:45.057Z,0.90
2022-08-03T16:03:11.854Z,1.13
2022-08-03T16:05:38.797Z,0.80
2022-08-03T16:08:09.016Z,0.80
2022-08-03T16:10:38.725Z,1.20
2022-08-03T16:13:05.532Z,0.95
2022-08-03T16:15:32.430Z,1.10
2022-08-03T16:18:08.692Z,1.30
2022-08-03T16:20:35.684Z,0.80
2022-08-03T16:23:11.088Z,1.10
2022-08-03T16:25:40.132Z,1.13
2022-08-03T16:28:13.594Z,1.10
2022-08-03T16:30:43.396Z,0.90
2022-08-03T16:33:16.589Z,1.00
2022-08-03T16:35:46.173Z,0.80
2022-08-03T16:38:18.518Z,1.02
2022-08-03T16:40:47.777Z,1.20
2022-08-03T16:43:18.411Z,1.00
2022-08-03T16:45:47.246Z,0.88
2022-08-03T16:48:15.904Z,1.13
2022-08-03T16:50:42.789Z,1.02
2022-08-03T16:53:16.666Z,0.80
2022-08-03T16:55:53.625Z,0.90
2022-08-03T16:58:34.432Z,1.10
2022-08-03T17:01:21.878Z,0.68
2022-08-03T17:04:02.283Z,0.98
2022-08-03T17:06:35.473Z,0.80
2022-08-03T17:09:10.141Z,0.77
2022-08-03T17:11:47.331Z,1.10
2022-08-03T17:14:17.231Z,1.08
2022-08-03T17:16:52.570Z,0.95
2022-08-03T17:19:23.695Z,0.80
2022-08-03T17:22:04.901Z,0.93
2022-08-03T17:24:41.305Z,1.00
2022-08-03T17:28:41.834Z,0.80
2022-08-03T17:30:14.982Z,0.68
2022-08-03T17:32:57.704Z,0.93
2022-08-03T17:35:36.619Z,0.90
2022-08-03T17:38:10.299Z,0.57
2022-08-03T17:40:47.972Z,0.60
2022-08-03T17:44:13.453Z,0.70
2022-08-03T17:46:10.572Z,0.60
2022-08-03T17:48:41.172Z,0.90
2022-08-03T17:51:20.477Z,0.70
2022-08-03T17:54:05.025Z,1.05
2022-08-03T17:58:01.448Z,0.85
2022-08-03T18:00:43.892Z,1.10
2022-08-03T18:03:59.399Z,1.15
2022-08-03T18:06:36.757Z,1.02
2022-08-03T18:10:04.391Z,1.23
2022-08-03T18:11:58.646Z,1.45
2022-08-03T18:14:43.217Z,0.90
2022-08-03T18:17:55.621Z,1.67
2022-08-03T18:20:34.418Z,1.15
2022-08-03T18:23:25.062Z,1.10
2022-08-03T18:26:02.060Z,1.33
2022-08-03T18:28:29.843Z,1.13
2022-08-03T18:30:57.637Z,1.17
2022-08-03T18:34:18.951Z,1.33
2022-08-03T18:36:21.704Z,1.15
2022-08-03T18:41:33.167Z,0.90
2022-08-03T18:44:08.087Z,1.20
2022-08-03T18:46:49.506Z,1.30
2022-08-03T18:49:46.859Z,0.80
2022-08-03T18:52:27.845Z,0.95
2022-08-03T18:56:01.362Z,1.40
2022-08-03T18:59:08.759Z,1.17
2022-08-03T19:01:59.782Z,1.25
2022-08-03T19:04:32.483Z,1.50
2022-08-03T19:07:09.177Z,1.30
2022-08-03T19:09:49.456Z,1.25
2022-08-03T19:12:39.854Z,1.65
2022-08-03T19:15:10.391Z,1.30
2022-08-03T19:17:53.264Z,1.17
2022-08-03T19:20:28.777Z,1.30
2022-08-03T19:22:58.689Z,1.45
2022-08-03T19:25:34.317Z,1.25
2022-08-03T19:28:06.102Z,1.50
2022-08-03T19:30:53.361Z,1.55
2022-08-03T19:33:21.890Z,1.42
2022-08-03T19:35:55.089Z,1.38
2022-08-03T19:38:27.391Z,1.63
2022-08-03T19:41:03.679Z,1.20
2022-08-03T19:46:31.652Z,4.82
2022-08-03T19:49:15.029Z,2.10
2022-08-03T19:52:01.561Z,2.53
2022-08-03T19:54:54.210Z,2.38
2022-08-03T19:57:25.087Z,2.05
2022-08-03T19:59:54.080Z,1.90
2022-08-03T20:02:26.766Z,1.75
2022-08-03T20:04:57.183Z,1.92
2022-08-03T20:07:26.478Z,2.08
2022-08-03T20:09:56.409Z,1.95
2022-08-03T20:12:28.094Z,1.92
2022-08-03T20:14:57.768Z,2.45
2022-08-03T20:20:12.646Z,2.05
2022-08-03T20:22:45.547Z,1.73
2022-08-03T20:28:14.227Z,1.13
2022-08-03T20:30:44.344Z,1.55
2022-08-03T20:33:19.011Z,1.73
2022-08-03T20:38:18.551Z,1.73
2022-08-03T20:40:47.462Z,1.30
2022-08-03T20:43:15.749Z,1.73
2022-08-03T20:45:59.651Z,1.00
2022-08-03T20:48:31.140Z,1.63
2022-08-03T20:50:58.377Z,1.42
2022-08-03T20:53:56.901Z,1.58
2022-08-03T20:56:15.155Z,1.35
2022-08-03T20:58:50.515Z,1.13
2022-08-03T21:01:18.059Z,1.30
2022-08-03T21:03:55.799Z,1.98
2022-08-03T21:06:27.837Z,1.58
2022-08-03T21:09:05.224Z,2.25
2022-08-03T21:11:41.932Z,1.50
2022-08-03T21:13:02.803Z,3.67
2022-08-03T21:13:06.786Z,1.85
2022-08-03T21:13:10.448Z,2.35
2022-08-03T21:14:59.210Z,1.23
2022-08-03T21:17:39.899Z,1.08
2022-08-03T21:20:10.897Z,1.70
2022-08-03T21:22:40.130Z,1.67
2022-08-03T21:25:09.541Z,1.13
2022-08-03T21:27:37.356Z,1.92
2022-08-03T21:30:10.255Z,1.30
2022-08-03T21:32:40.442Z,1.33
2022-08-03T21:35:11.169Z,1.42
2022-08-03T21:37:40.189Z,1.23
2022-08-03T21:40:10.818Z,1.50
2022-08-03T21:42:39.547Z,1.58
2022-08-03T21:45:17.157Z,1.67
2022-08-03T21:47:45.374Z,1.48
2022-08-03T21:50:13.876Z,2.03
2022-08-03T21:52:44.769Z,1.50
2022-08-03T21:55:18.408Z,1.67
2022-08-03T21:57:53.261Z,1.85
2022-08-03T22:00:23.181Z,1.80
2022-08-03T22:02:57.433Z,1.30
2022-08-03T22:05:28.958Z,1.40
2022-08-03T22:08:09.995Z,1.50
2022-08-03T22:10:37.355Z,1.38
2022-08-03T22:13:04.233Z,1.77
2022-08-03T22:15:31.313Z,1.88
2022-08-03T22:18:03.470Z,1.63
2022-08-03T22:20:30.786Z,1.70
2022-08-03T22:23:02.793Z,1.58
2022-08-03T22:25:34.637Z,1.27
2022-08-03T22:28:07.958Z,1.15
2022-08-03T22:30:35.286Z,1.52
2022-08-03T22:33:05.784Z,1.48
2022-08-03T22:35:47.837Z,1.85
2022-08-03T22:38:18.874Z,1.27
2022-08-03T22:40:48.932Z,1.13
2022-08-03T22:43:16.714Z,1.33
2022-08-03T22:46:08.900Z,1.27
2022-08-03T22:48:36.624Z,1.38
2022-08-03T22:51:08.985Z,1.35
2022-08-03T22:53:36.460Z,2.10
2022-08-03T22:56:03.908Z,1.30
2022-08-03T22:58:30.749Z,1.33
2022-08-03T23:01:09.852Z,1.63
2022-08-03T23:04:00.837Z,1.25
2022-08-03T23:06:37.146Z,1.20
2022-08-03T23:09:10.048Z,1.70
2022-08-03T23:11:45.487Z,1.05
2022-08-03T23:14:16.615Z,1.50
2022-08-03T23:16:45.804Z,1.20
2022-08-03T23:19:16.983Z,1.75
2022-08-03T23:21:52.913Z,1.60
2022-08-03T23:24:30.159Z,1.48
2022-08-03T23:26:57.693Z,2.05
2022-08-03T23:29:26.771Z,1.83
2022-08-03T23:31:54.551Z,2.03
2022-08-03T23:34:41.529Z,2.10
2022-08-03T23:37:09.742Z,1.45
2022-08-03T23:39:37.482Z,1.33
2022-08-03T23:42:05.549Z,1.65
2022-08-03T23:44:34.858Z,1.10
2022-08-03T23:47:01.799Z,1.77
2022-08-03T23:49:28.614Z,1.40
2022-08-03T23:52:18.382Z,1.30
2022-08-03T23:55:13.645Z,1.90
2022-08-03T23:58:04.685Z,1.85
